Terminal Aerodrome Forecast
Issued by NWS Duluth, MN

Home | Current Version | Previous Version | Text Only | Print | Product List | Glossary On
Versions: 1 2 3 4 5 6 7 8 9 10 11 12 13 14 15 16 17 18 19 20 21 22 23 24 25 26 27
093
FTUS43 KDLH 242048 AAE
TAFINL
TAF AMD
KINL 242048Z 2421/2518 03008KT P6SM BKN035
     FM242300 02007KT P6SM BKN035
     FM250200 04005KT P6SM BKN035
     FM250800 VRB03KT P6SM BKN030
     FM251400 14012KT P6SM BKN030=

USA.gov is the U.S. government's official web portal to all federal, state and local government web resources and services.